createdAt,value
2022-12-18T00:00:43.408Z,101369.00
2022-12-18T00:01:34.336Z,101368.25
2022-12-18T00:02:21.478Z,101367.16
2022-12-18T00:03:08.556Z,101367.22
2022-12-18T00:03:56.754Z,101367.03
2022-12-18T00:04:43.821Z,101372.25
2022-12-18T00:05:30.706Z,101367.56
2022-12-18T00:06:17.861Z,101369.41
2022-12-18T00:07:04.749Z,101367.03
2022-12-18T00:07:54.450Z,101366.34
2022-12-18T00:08:42.426Z,101367.22
2022-12-18T00:09:39.306Z,101365.16
2022-12-18T00:10:26.931Z,101358.03
2022-12-18T00:11:18.816Z,101365.00
2022-12-18T00:13:05.279Z,101353.28
2022-12-18T00:13:58.067Z,101356.28
2022-12-18T00:14:45.010Z,101367.03
2022-12-18T00:15:31.970Z,101366.41
2022-12-18T00:16:22.072Z,101366.31
2022-12-18T00:17:09.072Z,101362.81
2022-12-18T00:17:56.077Z,101367.28
2022-12-18T00:18:43.689Z,101363.59
2022-12-18T00:19:30.652Z,101370.75
2022-12-18T00:20:21.985Z,101374.00
2022-12-18T00:21:11.377Z,101373.50
2022-12-18T00:21:59.486Z,101375.41
2022-12-18T00:22:46.451Z,101368.44
2022-12-18T00:23:36.678Z,101370.44
2022-12-18T00:24:23.890Z,101373.06
2022-12-18T00:25:10.786Z,101373.50
2022-12-18T00:26:06.216Z,101383.06
2022-12-18T00:26:53.168Z,101384.06
2022-12-18T00:27:40.030Z,101381.81
2022-12-18T00:28:26.988Z,101382.00
2022-12-18T00:29:15.126Z,101383.72
2022-12-18T00:30:02.072Z,101384.25
2022-12-18T00:30:52.577Z,101388.75
2022-12-18T00:31:39.808Z,101387.91
2022-12-18T00:32:26.790Z,101383.47
2022-12-18T00:33:13.699Z,101396.03
2022-12-18T00:34:00.639Z,101389.13
2022-12-18T00:34:47.517Z,101389.37
2022-12-18T00:35:34.407Z,101390.88
2022-12-18T00:36:24.270Z,101394.22
2022-12-18T00:37:14.429Z,101394.03
2022-12-18T00:38:04.065Z,101395.94
2022-12-18T00:38:51.157Z,101386.97
2022-12-18T00:39:38.070Z,101400.25
2022-12-18T00:40:24.937Z,101392.50
2022-12-18T00:41:13.140Z,101398.78
2022-12-18T00:42:18.596Z,101389.78
2022-12-18T00:43:05.556Z,101392.38
2022-12-18T00:43:52.443Z,101390.03
2022-12-18T00:44:39.416Z,101397.91
2022-12-18T00:45:28.554Z,101401.59
2022-12-18T00:46:15.524Z,101402.59
2022-12-18T00:47:02.528Z,101398.06
2022-12-18T00:47:49.527Z,101399.72
2022-12-18T00:48:36.495Z,101398.09
2022-12-18T00:49:23.388Z,101397.06
2022-12-18T00:50:10.677Z,101405.19
2022-12-18T00:50:57.532Z,101410.37
2022-12-18T00:51:44.965Z,101405.97
2022-12-18T00:52:31.867Z,101415.63
2022-12-18T00:53:19.246Z,101410.53
2022-12-18T00:54:06.818Z,101411.66
2022-12-18T00:54:53.694Z,101411.94
2022-12-18T00:55:41.242Z,101415.56
2022-12-18T00:56:28.327Z,101407.81
2022-12-18T00:57:15.280Z,101418.16
2022-12-18T00:58:02.237Z,101417.56
2022-12-18T00:58:49.386Z,101421.78
2022-12-18T00:59:36.334Z,101420.37
2022-12-18T01:00:23.643Z,101425.00
2022-12-18T01:01:10.652Z,101424.75
2022-12-18T01:01:57.654Z,101417.47
2022-12-18T01:02:44.715Z,101422.44
2022-12-18T01:03:31.989Z,101419.75
2022-12-18T01:04:18.897Z,101424.59
2022-12-18T01:05:06.195Z,101422.03
2022-12-18T01:05:53.126Z,101416.25
2022-12-18T01:06:40.203Z,101425.31
2022-12-18T01:07:27.114Z,101430.66
2022-12-18T01:08:14.033Z,101430.06
2022-12-18T01:09:00.947Z,101426.25
2022-12-18T01:09:47.802Z,101425.41
2022-12-18T01:10:34.899Z,101441.28
2022-12-18T01:11:22.567Z,101435.19
2022-12-18T01:12:09.456Z,101440.84
2022-12-18T01:12:56.917Z,101432.75
2022-12-18T01:13:44.221Z,101443.19
2022-12-18T01:14:31.098Z,101441.34
2022-12-18T01:15:18.709Z,101440.44
2022-12-18T01:16:05.965Z,101439.41
2022-12-18T01:16:52.983Z,101449.66
2022-12-18T01:17:39.989Z,101440.72
2022-12-18T01:18:26.886Z,101447.59
2022-12-18T01:19:13.949Z,101444.16
2022-12-18T01:20:00.850Z,101444.72
2022-12-18T01:20:47.778Z,101447.31
2022-12-18T01:21:34.824Z,101445.22
2022-12-18T01:22:21.936Z,101445.12
2022-12-18T01:23:08.857Z,101443.50
2022-12-18T01:23:57.625Z,101440.69
2022-12-18T01:24:44.616Z,101448.56
2022-12-18T01:25:31.476Z,101452.09
2022-12-18T01:26:18.330Z,101457.56
2022-12-18T01:27:05.417Z,101452.19
2022-12-18T01:27:52.526Z,101448.56
2022-12-18T01:28:41.099Z,101450.78
2022-12-18T01:29:28.117Z,101457.19
2022-12-18T01:30:15.037Z,101459.38
2022-12-18T01:31:25.751Z,101453.00
2022-12-18T01:32:12.695Z,101453.97
2022-12-18T01:32:59.595Z,101470.09
2022-12-18T01:33:46.828Z,101467.37
2022-12-18T01:34:33.782Z,101461.66
2022-12-18T01:35:21.008Z,101462.12
2022-12-18T01:36:08.265Z,101458.62
2022-12-18T01:36:55.186Z,101459.50
2022-12-18T01:37:42.085Z,101463.34
2022-12-18T01:38:30.039Z,101469.78
2022-12-18T01:39:16.909Z,101466.09
2022-12-18T01:40:04.266Z,101474.63
2022-12-18T01:40:58.913Z,101474.41
2022-12-18T01:42:04.182Z,101474.50
2022-12-18T01:42:54.628Z,101478.81
2022-12-18T01:43:58.569Z,101477.47
2022-12-18T01:44:57.509Z,101477.91
2022-12-18T01:45:44.451Z,101472.84
2022-12-18T01:46:31.406Z,101478.38
2022-12-18T01:47:25.288Z,101477.56
2022-12-18T01:48:12.287Z,101482.69
2022-12-18T01:49:01.610Z,101478.19
2022-12-18T01:49:48.737Z,101480.56
2022-12-18T01:50:43.476Z,101469.91
2022-12-18T01:51:31.580Z,101481.47
2022-12-18T01:52:19.087Z,101479.19
2022-12-18T01:53:11.809Z,101477.25
2022-12-18T01:53:59.371Z,101471.97
2022-12-18T01:54:46.998Z,101472.81
2022-12-18T01:55:46.918Z,101477.66
2022-12-18T01:56:33.848Z,101473.91
2022-12-18T01:57:21.237Z,101480.81
2022-12-18T01:58:08.257Z,101479.78
2022-12-18T01:59:14.558Z,101482.88
2022-12-18T02:00:05.550Z,101486.91
2022-12-18T02:00:52.658Z,101485.31
2022-12-18T02:01:39.703Z,101489.94
2022-12-18T02:02:28.589Z,101488.31
2022-12-18T02:03:15.692Z,101486.38
2022-12-18T02:04:24.857Z,101493.28
2022-12-18T02:05:13.334Z,101489.78
2022-12-18T02:06:36.218Z,101493.66
2022-12-18T02:07:48.607Z,101494.16
2022-12-18T02:08:51.957Z,101498.75
2022-12-18T02:09:48.177Z,101501.34
2022-12-18T02:10:48.608Z,101495.44
2022-12-18T02:12:04.767Z,101500.59
2022-12-18T02:13:28.267Z,101492.84
2022-12-18T02:14:33.476Z,101494.03
2022-12-18T02:15:24.768Z,101502.88
2022-12-18T02:16:30.419Z,101500.50
2022-12-18T02:17:23.915Z,101504.59
2022-12-18T02:18:20.630Z,101505.06
2022-12-18T02:19:30.405Z,101505.81
2022-12-18T02:20:23.289Z,101510.91
2022-12-18T02:21:31.437Z,101510.91
2022-12-18T02:22:21.247Z,101507.31
2022-12-18T02:23:14.188Z,101514.38
2022-12-18T02:24:15.337Z,101525.72
2022-12-18T02:25:28.346Z,101523.09
2022-12-18T02:26:39.186Z,101516.84
2022-12-18T02:27:26.226Z,101519.62
2022-12-18T02:28:15.190Z,101514.03
2022-12-18T02:29:05.188Z,101516.44
2022-12-18T02:29:58.206Z,101515.69
2022-12-18T02:30:46.712Z,101519.06
2022-12-18T02:31:39.366Z,101515.84
2022-12-18T02:32:30.145Z,101519.75
2022-12-18T02:33:17.398Z,101521.19
2022-12-18T02:34:06.305Z,101525.16
2022-12-18T02:34:54.576Z,101527.09
2022-12-18T02:35:42.556Z,101529.47
2022-12-18T02:36:30.218Z,101523.88
2022-12-18T02:37:19.361Z,101529.78
2022-12-18T02:38:06.547Z,101531.94
2022-12-18T02:38:53.867Z,101529.16
2022-12-18T02:39:43.571Z,101536.97
2022-12-18T02:40:30.726Z,101527.97
2022-12-18T02:41:18.246Z,101530.59
2022-12-18T02:42:09.182Z,101535.50
2022-12-18T02:42:56.266Z,101535.28
2022-12-18T02:43:48.720Z,101533.69
2022-12-18T02:44:37.497Z,101534.50
2022-12-18T02:45:24.426Z,101532.31
2022-12-18T02:46:30.406Z,101530.41
2022-12-18T02:47:20.961Z,101540.34
2022-12-18T02:48:09.405Z,101536.09
2022-12-18T02:49:32.476Z,101545.19
2022-12-18T02:50:38.876Z,101536.19
2022-12-18T02:51:31.106Z,101539.41
2022-12-18T02:52:36.614Z,101538.44
2022-12-18T02:53:31.967Z,101532.88
2022-12-18T02:54:47.352Z,101538.19
2022-12-18T02:55:46.789Z,101539.25
2022-12-18T02:56:40.788Z,101548.28
2022-12-18T02:57:55.547Z,101548.19
2022-12-18T02:58:54.396Z,101546.56
2022-12-18T02:59:49.847Z,101552.56
2022-12-18T03:00:44.598Z,101549.91
2022-12-18T03:01:43.220Z,101552.34
2022-12-18T03:02:38.699Z,101551.47
2022-12-18T03:03:50.567Z,101550.88
2022-12-18T03:04:45.384Z,101553.66
2022-12-18T03:05:40.267Z,101557.66
2022-12-18T03:06:44.167Z,101553.03
2022-12-18T03:08:02.337Z,101555.44
2022-12-18T03:08:54.216Z,101557.94
2022-12-18T03:09:45.345Z,101553.62
2022-12-18T03:10:34.940Z,101561.69
2022-12-18T03:11:41.826Z,101557.25
2022-12-18T03:12:37.642Z,101554.56
2022-12-18T03:13:53.317Z,101561.19
2022-12-18T03:14:41.966Z,101566.25
2022-12-18T03:15:49.527Z,101569.59
2022-12-18T03:16:38.090Z,101565.19
2022-12-18T03:17:27.025Z,101574.41
2022-12-18T03:18:18.734Z,101571.91
2022-12-18T03:19:09.587Z,101575.44
2022-12-18T03:19:58.537Z,101567.66
2022-12-18T03:20:48.946Z,101567.50
2022-12-18T03:21:42.700Z,101577.16
2022-12-18T03:22:31.697Z,101573.88
2022-12-18T03:23:25.938Z,101575.81
2022-12-18T03:24:13.277Z,101578.00
2022-12-18T03:25:01.965Z,101582.47
2022-12-18T03:25:50.635Z,101576.94
2022-12-18T03:26:38.906Z,101571.38
2022-12-18T03:27:26.775Z,101580.09
2022-12-18T03:28:16.867Z,101580.88
2022-12-18T03:29:08.246Z,101584.25
2022-12-18T03:30:11.487Z,101579.84
2022-12-18T03:31:00.242Z,101576.53
2022-12-18T03:31:53.346Z,101576.63
2022-12-18T03:32:43.816Z,101583.59
2022-12-18T03:33:39.791Z,101583.03
2022-12-18T03:34:31.685Z,101590.56
2022-12-18T03:35:23.887Z,101582.78
2022-12-18T03:36:10.946Z,101593.34
2022-12-18T03:36:57.948Z,101591.47
2022-12-18T03:37:44.857Z,101587.78
2022-12-18T03:38:31.763Z,101589.59
2022-12-18T03:39:18.690Z,101598.00
2022-12-18T03:40:06.917Z,101596.97
2022-12-18T03:41:05.785Z,101600.38
2022-12-18T03:41:56.822Z,101601.25
2022-12-18T03:42:55.974Z,101598.69
2022-12-18T03:44:05.563Z,101598.06
2022-12-18T03:45:09.870Z,101601.53
2022-12-18T03:46:10.519Z,101593.41
2022-12-18T03:47:08.259Z,101595.09
2022-12-18T03:48:00.493Z,101590.53
2022-12-18T03:48:59.054Z,101596.84
2022-12-18T03:50:13.030Z,101593.66
2022-12-18T03:51:19.595Z,101591.16
2022-12-18T03:52:21.746Z,101598.91
2022-12-18T03:53:30.047Z,101593.78
2022-12-18T03:54:18.039Z,101606.84
2022-12-18T03:55:06.849Z,101598.25
2022-12-18T03:55:54.220Z,101604.62
2022-12-18T03:56:44.342Z,101596.84
2022-12-18T03:57:32.909Z,101607.47
2022-12-18T03:58:24.109Z,101602.22
2022-12-18T03:59:11.737Z,101601.22
2022-12-18T04:00:02.115Z,101601.19
2022-12-18T04:00:52.162Z,101602.00
2022-12-18T04:01:43.313Z,101594.06
2022-12-18T04:02:31.983Z,101608.06
2022-12-18T04:03:23.984Z,101602.94
2022-12-18T04:04:14.462Z,101613.28
2022-12-18T04:05:04.871Z,101612.91
2022-12-18T04:05:52.783Z,101612.84
2022-12-18T04:07:28.303Z,101615.31
2022-12-18T04:08:15.473Z,101612.56
2022-12-18T04:09:02.738Z,101608.97
2022-12-18T04:09:50.662Z,101616.78
2022-12-18T04:10:38.192Z,101613.34
2022-12-18T04:11:25.415Z,101605.66
2022-12-18T04:12:12.382Z,101610.81
2022-12-18T04:12:59.546Z,101609.13
2022-12-18T04:13:46.594Z,101626.09
2022-12-18T04:14:36.788Z,101622.12
2022-12-18T04:15:23.787Z,101620.50
2022-12-18T04:16:10.801Z,101625.75
2022-12-18T04:16:57.867Z,101629.41
2022-12-18T04:17:49.931Z,101634.38
2022-12-18T04:18:37.256Z,101627.00
2022-12-18T04:19:24.224Z,101619.87
2022-12-18T04:20:11.661Z,101626.06
2022-12-18T04:20:58.705Z,101632.28
2022-12-18T04:21:45.677Z,101627.91
2022-12-18T04:22:32.598Z,101636.56
2022-12-18T04:23:19.733Z,101632.28
2022-12-18T04:24:06.969Z,101640.37
2022-12-18T04:24:53.865Z,101628.84
2022-12-18T04:25:40.815Z,101628.97
2022-12-18T04:26:27.837Z,101635.47
2022-12-18T04:27:15.194Z,101624.03
2022-12-18T04:28:02.099Z,101630.22
2022-12-18T04:28:49.150Z,101623.78
2022-12-18T04:29:36.149Z,101625.25
2022-12-18T04:30:23.094Z,101631.34
2022-12-18T04:31:10.063Z,101632.19
2022-12-18T04:31:57.186Z,101635.81
2022-12-18T04:32:49.057Z,101628.84
2022-12-18T04:33:39.294Z,101638.50
2022-12-18T04:34:26.628Z,101638.50
2022-12-18T04:35:13.541Z,101633.25
2022-12-18T04:36:00.588Z,101637.66
2022-12-18T04:36:47.548Z,101632.28
2022-12-18T04:37:34.666Z,101632.28
2022-12-18T04:38:21.687Z,101638.41
2022-12-18T04:39:08.695Z,101632.66
2022-12-18T04:39:55.656Z,101643.91
2022-12-18T04:40:42.625Z,101637.00
2022-12-18T04:41:30.099Z,101643.16
2022-12-18T04:42:17.028Z,101635.19
2022-12-18T04:43:04.805Z,101638.75
2022-12-18T04:43:51.738Z,101636.22
2022-12-18T04:44:38.734Z,101641.69
2022-12-18T04:45:25.657Z,101644.19
2022-12-18T04:46:12.694Z,101636.34
2022-12-18T04:46:59.824Z,101642.44
2022-12-18T04:47:46.881Z,101631.00
2022-12-18T04:48:34.292Z,101638.94
2022-12-18T04:49:21.279Z,101637.09
2022-12-18T04:50:08.718Z,101649.28
2022-12-18T04:50:58.146Z,101645.78
2022-12-18T04:51:45.047Z,101639.72
2022-12-18T04:52:34.856Z,101640.56
2022-12-18T04:53:21.832Z,101646.81
2022-12-18T04:54:08.773Z,101642.56
2022-12-18T04:54:55.731Z,101638.94
2022-12-18T04:55:42.751Z,101653.78
2022-12-18T04:56:29.784Z,101649.38
2022-12-18T04:57:16.731Z,101649.31
2022-12-18T04:58:03.766Z,101651.16
2022-12-18T04:58:50.897Z,101649.31
2022-12-18T04:59:37.872Z,101648.44
2022-12-18T05:00:24.997Z,101651.16
2022-12-18T05:01:14.172Z,101645.16
2022-12-18T05:02:01.368Z,101656.81
2022-12-18T05:02:48.639Z,101654.03
2022-12-18T05:03:36.308Z,101668.13
2022-12-18T05:04:23.315Z,101668.94
2022-12-18T05:05:10.554Z,101663.87
2022-12-18T05:05:57.478Z,101674.28
2022-12-18T05:06:44.487Z,101661.06
2022-12-18T05:07:31.615Z,101665.75
2022-12-18T05:08:18.966Z,101665.88
2022-12-18T05:09:06.967Z,101670.47
2022-12-18T05:09:53.969Z,101669.44
2022-12-18T05:10:41.027Z,101672.78
2022-12-18T05:11:28.659Z,101673.63
2022-12-18T05:12:15.716Z,101678.81
2022-12-18T05:13:04.943Z,101674.47
2022-12-18T05:13:51.854Z,101676.19
2022-12-18T05:14:38.805Z,101682.69
2022-12-18T05:15:30.636Z,101675.56
2022-12-18T05:16:17.709Z,101679.00
2022-12-18T05:17:04.774Z,101677.31
2022-12-18T05:17:51.747Z,101680.81
2022-12-18T05:18:39.176Z,101679.06
2022-12-18T05:19:26.608Z,101676.44
2022-12-18T05:20:13.557Z,101677.53
2022-12-18T05:21:00.661Z,101679.44
2022-12-18T05:21:47.600Z,101679.28
2022-12-18T05:22:34.548Z,101678.66
2022-12-18T05:23:22.821Z,101682.72
2022-12-18T05:24:09.785Z,101680.84
2022-12-18T05:24:56.833Z,101678.88
2022-12-18T05:25:43.810Z,101680.56
2022-12-18T05:26:32.001Z,101684.16
2022-12-18T05:27:20.587Z,101684.13
2022-12-18T05:28:07.631Z,101691.91
2022-12-18T05:28:54.609Z,101690.53
2022-12-18T05:29:41.517Z,101684.63
2022-12-18T05:30:28.905Z,101690.75
2022-12-18T05:31:16.132Z,101690.19
2022-12-18T05:32:03.170Z,101694.28
2022-12-18T05:32:50.115Z,101685.28
2022-12-18T05:33:37.808Z,101692.94
2022-12-18T05:34:25.136Z,101695.47
2022-12-18T05:35:12.548Z,101694.75
2022-12-18T05:36:04.305Z,101699.25
2022-12-18T05:36:51.197Z,101705.34
2022-12-18T05:37:42.926Z,101699.16
2022-12-18T05:38:31.349Z,101701.78
2022-12-18T05:39:18.615Z,101700.00
2022-12-18T05:40:06.190Z,101701.69
2022-12-18T05:40:53.824Z,101704.59
2022-12-18T05:41:40.732Z,101708.16
2022-12-18T05:42:28.534Z,101708.25
2022-12-18T05:43:20.930Z,101708.19
2022-12-18T05:44:08.259Z,101715.28
2022-12-18T05:44:55.272Z,101712.59
2022-12-18T05:45:42.854Z,101712.50
2022-12-18T05:46:30.673Z,101711.56
2022-12-18T05:47:18.129Z,101712.56
2022-12-18T05:48:05.656Z,101710.09
2022-12-18T05:48:53.070Z,101720.53
2022-12-18T05:49:40.095Z,101723.00
2022-12-18T05:50:27.020Z,101717.66
2022-12-18T05:51:19.007Z,101725.69
2022-12-18T05:52:06.102Z,101723.84
2022-12-18T05:52:52.970Z,101724.75
2022-12-18T05:53:40.304Z,101720.34
2022-12-18T05:54:30.412Z,101722.31
2022-12-18T05:55:17.423Z,101724.87
2022-12-18T05:56:06.942Z,101722.22
2022-12-18T05:56:53.950Z,101722.09
2022-12-18T05:57:40.888Z,101720.34
2022-12-18T05:58:27.791Z,101721.37
2022-12-18T05:59:14.748Z,101720.47
2022-12-18T06:00:01.735Z,101725.72
2022-12-18T06:00:48.785Z,101724.87
2022-12-18T06:01:35.895Z,101726.66
2022-12-18T06:02:23.101Z,101719.47
2022-12-18T06:03:11.785Z,101719.41
2022-12-18T06:03:58.902Z,101724.66
2022-12-18T06:04:45.894Z,101723.81
2022-12-18T06:05:37.957Z,101721.13
2022-12-18T06:06:27.737Z,101720.28
2022-12-18T06:07:14.663Z,101727.34
2022-12-18T06:08:01.596Z,101722.91
2022-12-18T06:08:48.945Z,101723.81
2022-12-18T06:09:36.069Z,101717.91
2022-12-18T06:10:23.058Z,101718.69
2022-12-18T06:11:10.214Z,101720.84
2022-12-18T06:11:57.142Z,101726.41
2022-12-18T06:12:44.115Z,101719.38
2022-12-18T06:13:31.124Z,101727.00
2022-12-18T06:14:18.593Z,101720.72
2022-12-18T06:15:06.112Z,101726.72
2022-12-18T06:15:53.199Z,101733.66
2022-12-18T06:16:40.468Z,101729.31
2022-12-18T06:17:34.633Z,101726.84
2022-12-18T06:18:21.537Z,101730.19
2022-12-18T06:19:08.573Z,101731.97
2022-12-18T06:19:55.574Z,101736.38
2022-12-18T06:20:42.739Z,101732.81
2022-12-18T06:21:30.224Z,101736.38
2022-12-18T06:22:18.141Z,101731.97
2022-12-18T06:23:05.079Z,101734.66
2022-12-18T06:23:52.056Z,101735.44
2022-12-18T06:24:38.995Z,101732.91
2022-12-18T06:25:25.905Z,101734.91
2022-12-18T06:26:14.221Z,101733.28
2022-12-18T06:27:01.172Z,101745.72
2022-12-18T06:27:49.459Z,101747.41
2022-12-18T06:28:36.572Z,101743.72
2022-12-18T06:29:23.517Z,101742.09
2022-12-18T06:30:11.373Z,101740.22
2022-12-18T06:30:58.430Z,101740.91
2022-12-18T06:31:45.415Z,101744.31
2022-12-18T06:32:32.546Z,101737.22
2022-12-18T06:33:19.705Z,101736.56
2022-12-18T06:34:06.688Z,101735.75
2022-12-18T06:34:54.483Z,101736.78
2022-12-18T06:35:41.744Z,101743.00
2022-12-18T06:36:31.497Z,101738.50
2022-12-18T06:37:18.513Z,101737.50
2022-12-18T06:38:05.830Z,101744.34
2022-12-18T06:38:52.856Z,101746.91
2022-12-18T06:39:39.748Z,101747.94
2022-12-18T06:40:26.670Z,101742.84
2022-12-18T06:41:18.984Z,101749.94
2022-12-18T06:42:06.315Z,101751.72
2022-12-18T06:42:53.303Z,101752.66
2022-12-18T06:43:41.674Z,101750.19
2022-12-18T06:44:29.094Z,101757.34
2022-12-18T06:45:16.264Z,101762.53
2022-12-18T06:46:04.488Z,101765.78
2022-12-18T06:46:51.475Z,101762.13
2022-12-18T06:47:38.346Z,101764.63
2022-12-18T06:48:25.301Z,101763.84
2022-12-18T06:49:12.476Z,101757.06
2022-12-18T06:50:00.614Z,101764.84
2022-12-18T06:50:47.647Z,101762.13
2022-12-18T06:51:34.686Z,101758.47
2022-12-18T06:52:21.847Z,101767.16
2022-12-18T06:53:08.856Z,101764.41
2022-12-18T06:53:55.861Z,101759.13
2022-12-18T06:54:42.855Z,101770.00
2022-12-18T06:55:29.968Z,101777.03
2022-12-18T06:56:17.296Z,101772.84
2022-12-18T06:57:04.310Z,101781.34
2022-12-18T06:57:51.356Z,101770.00
2022-12-18T06:58:39.382Z,101778.78
2022-12-18T06:59:26.448Z,101779.44
2022-12-18T07:00:15.211Z,101776.59
2022-12-18T07:01:04.053Z,101776.50
2022-12-18T07:02:13.957Z,101780.72
2022-12-18T07:03:01.025Z,101782.47
2022-12-18T07:03:48.228Z,101779.97
2022-12-18T07:04:35.229Z,101785.16
2022-12-18T07:05:22.190Z,101782.41
2022-12-18T07:06:16.315Z,101785.87
2022-12-18T07:07:03.243Z,101793.19
2022-12-18T07:07:50.164Z,101788.94
2022-12-18T07:08:37.107Z,101787.84
2022-12-18T07:09:24.309Z,101799.87
2022-12-18T07:10:11.770Z,101797.22
2022-12-18T07:10:58.852Z,101803.19
2022-12-18T07:11:45.888Z,101802.47
2022-12-18T07:12:32.851Z,101798.00
2022-12-18T07:13:19.751Z,101800.22
2022-12-18T07:14:06.771Z,101803.97
2022-12-18T07:14:53.682Z,101807.25
2022-12-18T07:15:40.579Z,101802.56
2022-12-18T07:16:29.594Z,101805.22
2022-12-18T07:17:16.609Z,101808.62
2022-12-18T07:18:03.719Z,101818.09
2022-12-18T07:18:50.801Z,101820.78
2022-12-18T07:19:37.898Z,101816.28
2022-12-18T07:20:24.886Z,101817.06
2022-12-18T07:21:14.962Z,101823.03
2022-12-18T07:22:02.062Z,101821.25
2022-12-18T07:22:54.726Z,101828.59
2022-12-18T07:23:43.404Z,101822.56
2022-12-18T07:24:30.413Z,101836.38
2022-12-18T07:25:17.264Z,101831.94
2022-12-18T07:26:13.653Z,101831.81
2022-12-18T07:27:00.679Z,101836.94
2022-12-18T07:27:47.656Z,101831.59
2022-12-18T07:28:35.069Z,101839.53
2022-12-18T07:29:22.094Z,101841.19
2022-12-18T07:30:10.049Z,101844.63
2022-12-18T07:30:57.235Z,101843.06
2022-12-18T07:31:44.302Z,101841.44
2022-12-18T07:32:31.971Z,101848.56
2022-12-18T07:33:19.070Z,101848.66
2022-12-18T07:34:06.177Z,101842.44
2022-12-18T07:34:53.186Z,101843.97
2022-12-18T07:35:40.297Z,101850.72
2022-12-18T07:36:27.327Z,101851.84
2022-12-18T07:37:14.245Z,101857.84
2022-12-18T07:38:03.033Z,101862.03
2022-12-18T07:38:50.968Z,101852.41
2022-12-18T07:39:37.906Z,101863.69
2022-12-18T07:40:24.791Z,101861.13
2022-12-18T07:41:13.706Z,101865.62
2022-12-18T07:42:19.168Z,101857.56
2022-12-18T07:43:06.120Z,101862.81
2022-12-18T07:43:53.104Z,101864.34
2022-12-18T07:44:40.317Z,101864.53
2022-12-18T07:45:27.239Z,101868.38
2022-12-18T07:46:15.894Z,101865.75
2022-12-18T07:47:05.542Z,101868.97
2022-12-18T07:47:54.628Z,101875.88
2022-12-18T07:48:42.680Z,101868.84
2022-12-18T07:49:30.351Z,101867.72
2022-12-18T07:50:17.413Z,101869.47
2022-12-18T07:51:06.751Z,101872.97
2022-12-18T07:51:56.136Z,101871.41
2022-12-18T07:52:43.090Z,101872.12
2022-12-18T07:53:30.291Z,101870.50
2022-12-18T07:54:17.256Z,101867.94
2022-12-18T07:55:04.768Z,101864.22
2022-12-18T07:56:25.589Z,101873.00
2022-12-18T07:57:16.480Z,101871.16
2022-12-18T07:58:12.825Z,101863.06
2022-12-18T07:59:00.742Z,101862.88
2022-12-18T07:59:47.796Z,101865.41
2022-12-18T08:00:34.876Z,101873.19
2022-12-18T08:01:21.995Z,101880.03
2022-12-18T08:02:09.286Z,101878.25
2022-12-18T08:02:56.483Z,101875.59
2022-12-18T08:03:43.546Z,101878.34
2022-12-18T08:04:30.529Z,101870.53
2022-12-18T08:05:17.521Z,101873.13
2022-12-18T08:06:06.011Z,101872.75
2022-12-18T08:06:53.461Z,101865.50
2022-12-18T08:07:40.808Z,101869.69
2022-12-18T08:08:27.755Z,101870.47
2022-12-18T08:09:14.653Z,101870.37
2022-12-18T08:10:01.489Z,101865.00
2022-12-18T08:10:48.468Z,101865.72
2022-12-18T08:11:35.345Z,101872.69
2022-12-18T08:12:22.205Z,101861.25
2022-12-18T08:13:09.020Z,101873.41
2022-12-18T08:13:56.208Z,101865.38
2022-12-18T08:14:43.073Z,101867.94
2022-12-18T08:15:29.989Z,101874.03
2022-12-18T08:16:17.340Z,101872.12
2022-12-18T08:17:04.331Z,101865.91
2022-12-18T08:17:51.333Z,101864.81
2022-12-18T08:18:40.976Z,101868.28
2022-12-18T08:19:27.847Z,101858.13
2022-12-18T08:20:19.473Z,101869.50
2022-12-18T08:21:13.229Z,101866.75
2022-12-18T08:22:00.086Z,101867.03
2022-12-18T08:22:46.969Z,101865.78
2022-12-18T08:23:35.928Z,101866.00
2022-12-18T08:24:26.845Z,101873.13
2022-12-18T08:25:13.698Z,101872.81
2022-12-18T08:26:00.579Z,101875.47
2022-12-18T08:27:06.821Z,101868.47
2022-12-18T08:27:55.015Z,101858.66
2022-12-18T08:28:42.116Z,101855.91
2022-12-18T08:29:29.327Z,101853.72
2022-12-18T08:30:16.431Z,101849.78
2022-12-18T08:31:03.518Z,101846.81
2022-12-18T08:31:50.865Z,101858.06
2022-12-18T08:32:37.822Z,101852.75
2022-12-18T08:33:25.639Z,101856.09
2022-12-18T08:34:12.580Z,101859.44
2022-12-18T08:34:59.837Z,101858.38
2022-12-18T08:35:46.706Z,101863.56
2022-12-18T08:36:33.667Z,101866.44
2022-12-18T08:37:20.784Z,101865.53
2022-12-18T08:38:07.721Z,101860.31
2022-12-18T08:38:55.149Z,101872.44
2022-12-18T08:39:42.040Z,101869.91
2022-12-18T08:40:28.886Z,101867.97
2022-12-18T08:41:17.097Z,101866.28
2022-12-18T08:42:22.715Z,101866.28
2022-12-18T08:43:29.691Z,101867.81
2022-12-18T08:44:35.254Z,101875.56
2022-12-18T08:45:22.175Z,101866.72
2022-12-18T08:46:09.049Z,101876.16
2022-12-18T08:46:55.979Z,101875.97
2022-12-18T08:47:42.916Z,101870.66
2022-12-18T08:48:29.837Z,101874.44
2022-12-18T08:49:16.763Z,101881.44
2022-12-18T08:50:03.923Z,101886.72
2022-12-18T08:51:00.635Z,101875.00
2022-12-18T08:51:47.611Z,101868.59
2022-12-18T08:52:34.570Z,101872.78
2022-12-18T08:53:21.494Z,101877.94
2022-12-18T08:54:08.444Z,101875.16
2022-12-18T08:54:55.304Z,101867.06
2022-12-18T08:55:45.838Z,101861.66
2022-12-18T08:56:36.917Z,101862.41
2022-12-18T08:57:23.813Z,101864.91
2022-12-18T08:58:13.636Z,101859.53
2022-12-18T08:59:00.839Z,101865.59
2022-12-18T08:59:49.458Z,101857.63
2022-12-18T09:00:36.362Z,101850.63
2022-12-18T09:01:23.895Z,101857.47
2022-12-18T09:02:12.302Z,101855.41
2022-12-18T09:02:59.558Z,101863.19
2022-12-18T09:03:46.533Z,101867.53
2022-12-18T09:04:33.570Z,101866.63
2022-12-18T09:05:20.524Z,101870.91
2022-12-18T09:06:07.801Z,101869.91
2022-12-18T09:06:57.689Z,101870.72
2022-12-18T09:07:45.045Z,101866.38
2022-12-18T09:08:35.566Z,101866.38
2022-12-18T09:09:22.559Z,101865.28
2022-12-18T09:10:09.635Z,101867.87
2022-12-18T09:10:56.730Z,101873.28
2022-12-18T09:11:43.883Z,101870.44
2022-12-18T09:12:30.805Z,101863.19
2022-12-18T09:13:18.652Z,101862.16
2022-12-18T09:14:05.745Z,101860.28
2022-12-18T09:14:53.522Z,101864.53
2022-12-18T09:15:49.803Z,101859.22
2022-12-18T09:16:37.038Z,101867.03
2022-12-18T09:17:24.104Z,101870.44
2022-12-18T09:18:11.428Z,101863.38
2022-12-18T09:19:00.943Z,101863.28
2022-12-18T09:19:48.076Z,101866.59
2022-12-18T09:20:35.331Z,101865.66
2022-12-18T09:21:22.861Z,101855.84
2022-12-18T09:22:10.814Z,101856.53
2022-12-18T09:22:58.072Z,101865.19
2022-12-18T09:23:45.050Z,101863.31
2022-12-18T09:24:32.013Z,101867.81
2022-12-18T09:25:19.076Z,101876.03
2022-12-18T09:26:06.136Z,101867.06
2022-12-18T09:26:58.056Z,101874.75
2022-12-18T09:27:48.549Z,101866.06
2022-12-18T09:28:35.533Z,101865.03